sensor_id;sensor_type;location;lat;lon;timestamp;pressure;altitude;pressure_sealevel;temperature;humidity
70072;BME280;57434;42.794;23.302;2023-02-28T00:00:07;96127.00;;;4.84;93.41
70072;BME280;57434;42.794;23.302;2023-02-28T00:01:09;96119.34;;;4.88;93.33
70072;BME280;57434;42.794;23.302;2023-02-28T00:02:11;96134.84;;;5.01;92.97
70072;BME280;57434;42.794;23.302;2023-02-28T00:03:13;96145.41;;;5.06;92.71
70072;BME280;57434;42.794;23.302;2023-02-28T00:04:15;96159.53;;;5.12;92.43
70072;BME280;57434;42.794;23.302;2023-02-28T00:05:19;96114.47;;;4.92;91.94
70072;BME280;57434;42.794;23.302;2023-02-28T00:06:22;95957.75;;;3.84;91.14
70072;BME280;57434;42.794;23.302;2023-02-28T00:07:25;96160.97;;;5.17;91.03
70072;BME280;57434;42.794;23.302;2023-02-28T00:08:27;96153.28;;;5.08;90.74
70072;BME280;57434;42.794;23.302;2023-02-28T00:09:29;96155.84;;;4.90;91.10
70072;BME280;57434;42.794;23.302;2023-02-28T00:10:31;96148.00;;;4.72;91.06
70072;BME280;57434;42.794;23.302;2023-02-28T00:11:33;96130.22;;;4.69;91.07
70072;BME280;57434;42.794;23.302;2023-02-28T00:12:37;96148.13;;;4.81;90.99
70072;BME280;57434;42.794;23.302;2023-02-28T00:13:41;96156.63;;;4.90;91.05
70072;BME280;57434;42.794;23.302;2023-02-28T00:14:43;96154.28;;;4.89;90.98
70072;BME280;57434;42.794;23.302;2023-02-28T00:15:45;96084.06;;;4.47;90.92
70072;BME280;57434;42.794;23.302;2023-02-28T00:16:47;96063.13;;;4.29;91.58
70072;BME280;57434;42.794;23.302;2023-02-28T00:17:49;96153.78;;;4.77;91.53
70072;BME280;57434;42.794;23.302;2023-02-28T00:18:51;96170.25;;;4.72;90.99
70072;BME280;57434;42.794;23.302;2023-02-28T00:19:54;96145.88;;;4.63;91.41
70072;BME280;57434;42.794;23.302;2023-02-28T00:20:57;96172.13;;;4.75;91.75
70072;BME280;57434;42.794;23.302;2023-02-28T00:21:59;96158.34;;;4.71;91.77
70072;BME280;57434;42.794;23.302;2023-02-28T00:23:01;96144.75;;;4.61;91.99
70072;BME280;57434;42.794;23.302;2023-02-28T00:24:03;96162.00;;;4.68;92.11
70072;BME280;57434;42.794;23.302;2023-02-28T00:25:07;96166.34;;;4.69;91.94
70072;BME280;57434;42.794;23.302;2023-02-28T00:26:09;96160.94;;;4.21;91.91
70072;BME280;57434;42.794;23.302;2023-02-28T00:27:11;96075.03;;;3.72;92.57
70072;BME280;57434;42.794;23.302;2023-02-28T00:28:13;96165.63;;;4.24;93.09
70072;BME280;57434;42.794;23.302;2023-02-28T00:29:15;96161.00;;;4.04;93.37
70072;BME280;57434;42.794;23.302;2023-02-28T00:30:21;96181.41;;;4.27;93.45
70072;BME280;57434;42.794;23.302;2023-02-28T00:31:24;96183.47;;;4.39;93.46
70072;BME280;57434;42.794;23.302;2023-02-28T00:32:27;96170.13;;;4.34;93.39
70072;BME280;57434;42.794;23.302;2023-02-28T00:33:29;96175.41;;;4.44;93.50
70072;BME280;57434;42.794;23.302;2023-02-28T00:34:31;96142.06;;;4.16;93.84
70072;BME280;57434;42.794;23.302;2023-02-28T00:35:33;96145.53;;;4.20;94.00
70072;BME280;57434;42.794;23.302;2023-02-28T00:38:35;96176.19;;;4.45;94.19
70072;BME280;57434;42.794;23.302;2023-02-28T00:39:38;96152.47;;;4.40;94.30
70072;BME280;57434;42.794;23.302;2023-02-28T00:40:41;96188.69;;;4.66;94.21
70072;BME280;57434;42.794;23.302;2023-02-28T00:41:43;96162.72;;;4.43;94.00
70072;BME280;57434;42.794;23.302;2023-02-28T00:42:45;96121.97;;;4.24;94.05
70072;BME280;57434;42.794;23.302;2023-02-28T00:43:47;96158.38;;;4.42;93.85
70072;BME280;57434;42.794;23.302;2023-02-28T00:44:48;96144.69;;;4.35;93.54
70072;BME280;57434;42.794;23.302;2023-02-28T00:45:51;96157.03;;;4.47;93.68
70072;BME280;57434;42.794;23.302;2023-02-28T00:46:53;96182.09;;;4.60;93.76
70072;BME280;57434;42.794;23.302;2023-02-28T00:47:55;96187.84;;;4.53;93.77
70072;BME280;57434;42.794;23.302;2023-02-28T00:48:58;96161.44;;;4.32;93.94
70072;BME280;57434;42.794;23.302;2023-02-28T00:50:01;96159.88;;;4.31;93.99
70072;BME280;57434;42.794;23.302;2023-02-28T00:51:03;96160.56;;;4.35;94.21
70072;BME280;57434;42.794;23.302;2023-02-28T00:52:06;96148.44;;;4.29;94.12
70072;BME280;57434;42.794;23.302;2023-02-28T00:53:08;96128.63;;;4.14;94.19
70072;BME280;57434;42.794;23.302;2023-02-28T00:54:10;96174.06;;;4.49;93.99
70072;BME280;57434;42.794;23.302;2023-02-28T00:55:12;96164.66;;;4.59;93.82
70072;BME280;57434;42.794;23.302;2023-02-28T00:56:14;96124.63;;;4.15;93.50
70072;BME280;57434;42.794;23.302;2023-02-28T00:57:16;96139.91;;;4.36;93.39
70072;BME280;57434;42.794;23.302;2023-02-28T00:58:18;96159.28;;;4.52;93.18
70072;BME280;57434;42.794;23.302;2023-02-28T00:59:21;96149.47;;;4.48;92.95
70072;BME280;57434;42.794;23.302;2023-02-28T01:00:23;96020.59;;;3.62;92.54
70072;BME280;57434;42.794;23.302;2023-02-28T01:01:25;96152.94;;;4.52;92.41
70072;BME280;57434;42.794;23.302;2023-02-28T01:02:27;96164.94;;;4.49;92.12
70072;BME280;57434;42.794;23.302;2023-02-28T01:03:29;96159.50;;;4.45;92.00
70072;BME280;57434;42.794;23.302;2023-02-28T01:04:31;96139.41;;;4.25;91.79
70072;BME280;57434;42.794;23.302;2023-02-28T01:05:34;96157.88;;;4.31;91.57
70072;BME280;57434;42.794;23.302;2023-02-28T01:06:42;96138.53;;;4.28;91.42
70072;BME280;57434;42.794;23.302;2023-02-28T01:07:45;96150.59;;;4.37;91.59
70072;BME280;57434;42.794;23.302;2023-02-28T01:08:47;96110.41;;;3.68;91.41
70072;BME280;57434;42.794;23.302;2023-02-28T01:09:49;96154.59;;;4.36;90.99
70072;BME280;57434;42.794;23.302;2023-02-28T01:10:51;96157.38;;;4.20;90.84
70072;BME280;57434;42.794;23.302;2023-02-28T01:11:53;95971.78;;;2.90;90.85
70072;BME280;57434;42.794;23.302;2023-02-28T01:12:54;95986.84;;;2.89;90.93
70072;BME280;57434;42.794;23.302;2023-02-28T01:13:56;95992.03;;;3.03;91.29
70072;BME280;57434;42.794;23.302;2023-02-28T01:14:59;96144.63;;;3.94;91.40
70072;BME280;57434;42.794;23.302;2023-02-28T01:16:01;96127.66;;;3.92;91.25
70072;BME280;57434;42.794;23.302;2023-02-28T01:17:03;96132.72;;;3.93;91.16
70072;BME280;57434;42.794;23.302;2023-02-28T01:18:05;96120.97;;;3.73;91.33
70072;BME280;57434;42.794;23.302;2023-02-28T01:19:07;95825.34;;;1.79;91.18
70072;BME280;57434;42.794;23.302;2023-02-28T01:20:10;96116.59;;;3.59;91.68
70072;BME280;57434;42.794;23.302;2023-02-28T01:21:15;96136.59;;;3.67;92.10
70072;BME280;57434;42.794;23.302;2023-02-28T01:22:17;96146.31;;;3.75;92.45
70072;BME280;57434;42.794;23.302;2023-02-28T01:23:20;96125.19;;;3.65;92.40
70072;BME280;57434;42.794;23.302;2023-02-28T01:24:23;96147.88;;;3.76;91.95
70072;BME280;57434;42.794;23.302;2023-02-28T01:25:25;96145.78;;;3.80;91.80
70072;BME280;57434;42.794;23.302;2023-02-28T01:26:27;96148.91;;;3.82;91.36
70072;BME280;57434;42.794;23.302;2023-02-28T01:27:29;96146.31;;;3.75;91.36
70072;BME280;57434;42.794;23.302;2023-02-28T01:28:30;96123.16;;;3.65;91.28
70072;BME280;57434;42.794;23.302;2023-02-28T01:29:45;96113.66;;;3.34;91.55
70072;BME280;57434;42.794;23.302;2023-02-28T01:42:33;95973.31;;;2.59;91.40
70072;BME280;57434;42.794;23.302;2023-02-28T01:45:20;96149.38;;;4.09;91.11
70072;BME280;57434;42.794;23.302;2023-02-28T01:46:24;96137.13;;;4.07;90.92
70072;BME280;57434;42.794;23.302;2023-02-28T01:47:33;96034.94;;;3.44;90.48
70072;BME280;57434;42.794;23.302;2023-02-28T01:48:39;96135.31;;;4.00;90.34
70072;BME280;57434;42.794;23.302;2023-02-28T01:49:42;96132.03;;;4.05;90.13
70072;BME280;57434;42.794;23.302;2023-02-28T01:50:45;96128.84;;;3.91;90.01
70072;BME280;57434;42.794;23.302;2023-02-28T01:51:50;96102.97;;;3.65;90.03
70072;BME280;57434;42.794;23.302;2023-02-28T01:52:56;96134.06;;;3.89;90.07
70072;BME280;57434;42.794;23.302;2023-02-28T01:54:03;95738.63;;;0.84;89.29
70072;BME280;57434;42.794;23.302;2023-02-28T01:55:08;96051.69;;;3.24;89.36
70072;BME280;57434;42.794;23.302;2023-02-28T01:56:13;95992.38;;;2.89;89.27
70072;BME280;57434;42.794;23.302;2023-02-28T01:57:23;96131.66;;;3.74;89.44
70072;BME280;57434;42.794;23.302;2023-02-28T01:58:25;96154.03;;;3.84;89.35
70072;BME280;57434;42.794;23.302;2023-02-28T01:59:36;96119.94;;;3.67;89.23
70072;BME280;57434;42.794;23.302;2023-02-28T02:00:40;96134.41;;;3.74;89.39
70072;BME280;57434;42.794;23.302;2023-02-28T02:01:42;96131.22;;;3.76;89.38
70072;BME280;57434;42.794;23.302;2023-02-28T02:02:46;96121.44;;;3.55;89.22
70072;BME280;57434;42.794;23.302;2023-02-28T02:03:55;96156.72;;;3.55;89.70
70072;BME280;57434;42.794;23.302;2023-02-28T02:05:01;96118.25;;;3.24;89.77
70072;BME280;57434;42.794;23.302;2023-02-28T02:06:05;96088.78;;;2.98;89.90
70072;BME280;57434;42.794;23.302;2023-02-28T02:07:07;96066.94;;;2.84;90.15
70072;BME280;57434;42.794;23.302;2023-02-28T02:08:18;96157.50;;;3.39;90.34
70072;BME280;57434;42.794;23.302;2023-02-28T02:09:21;96146.88;;;3.37;90.39
70072;BME280;57434;42.794;23.302;2023-02-28T02:10:31;96181.34;;;3.53;90.33
70072;BME280;57434;42.794;23.302;2023-02-28T02:11:34;96165.06;;;3.55;90.23
70072;BME280;57434;42.794;23.302;2023-02-28T02:12:55;96151.34;;;3.48;89.85
70072;BME280;57434;42.794;23.302;2023-02-28T02:14:28;96163.56;;;3.50;89.39
70072;BME280;57434;42.794;23.302;2023-02-28T02:22:59;96154.47;;;3.33;89.66
70072;BME280;57434;42.794;23.302;2023-02-28T02:31:32;96113.38;;;2.96;89.20
70072;BME280;57434;42.794;23.302;2023-02-28T02:34:26;96179.69;;;3.39;88.74
70072;BME280;57434;42.794;23.302;2023-02-28T02:36:53;96161.91;;;3.20;89.34
70072;BME280;57434;42.794;23.302;2023-02-28T02:39:21;96186.00;;;3.23;89.57
70072;BME280;57434;42.794;23.302;2023-02-28T02:41:02;96163.41;;;3.25;89.47
70072;BME280;57434;42.794;23.302;2023-02-28T02:42:01;96149.09;;;3.26;89.31
70072;BME280;57434;42.794;23.302;2023-02-28T02:43:16;96157.06;;;3.24;89.68
70072;BME280;57434;42.794;23.302;2023-02-28T02:44:33;96162.31;;;3.02;89.45
70072;BME280;57434;42.794;23.302;2023-02-28T02:45:42;96010.19;;;2.03;89.36
70072;BME280;57434;42.794;23.302;2023-02-28T02:46:48;96168.66;;;3.19;89.77
70072;BME280;57434;42.794;23.302;2023-02-28T02:47:51;96160.19;;;3.10;90.14
70072;BME280;57434;42.794;23.302;2023-02-28T02:48:56;96138.16;;;3.03;90.54
70072;BME280;57434;42.794;23.302;2023-02-28T02:50:04;96157.66;;;3.16;90.60
70072;BME280;57434;42.794;23.302;2023-02-28T02:51:12;96164.72;;;3.36;90.42
70072;BME280;57434;42.794;23.302;2023-02-28T02:52:18;96170.59;;;3.38;90.50
70072;BME280;57434;42.794;23.302;2023-02-28T02:53:29;96171.13;;;3.33;90.73
70072;BME280;57434;42.794;23.302;2023-02-28T02:54:37;96103.50;;;2.95;90.79
70072;BME280;57434;42.794;23.302;2023-02-28T02:55:42;96156.72;;;3.22;90.97
70072;BME280;57434;42.794;23.302;2023-02-28T02:56:47;96154.66;;;3.26;91.14
70072;BME280;57434;42.794;23.302;2023-02-28T02:57:53;96124.22;;;3.06;91.04
70072;BME280;57434;42.794;23.302;2023-02-28T02:59:02;95843.91;;;1.26;90.47
70072;BME280;57434;42.794;23.302;2023-02-28T03:00:06;95891.47;;;1.17;90.34
70072;BME280;57434;42.794;23.302;2023-02-28T03:01:17;96132.72;;;3.32;90.77
70072;BME280;57434;42.794;23.302;2023-02-28T03:02:21;96153.34;;;3.47;90.65
70072;BME280;57434;42.794;23.302;2023-02-28T03:03:24;96152.41;;;3.54;90.35
70072;BME280;57434;42.794;23.302;2023-02-28T03:04:31;96148.50;;;3.35;89.95
70072;BME280;57434;42.794;23.302;2023-02-28T03:05:41;96152.22;;;3.28;90.17
70072;BME280;57434;42.794;23.302;2023-02-28T03:06:46;96163.16;;;3.35;90.21
70072;BME280;57434;42.794;23.302;2023-02-28T03:07:48;96153.44;;;3.27;90.30
70072;BME280;57434;42.794;23.302;2023-02-28T03:08:50;96182.25;;;3.14;90.34
70072;BME280;57434;42.794;23.302;2023-02-28T03:09:56;96165.47;;;3.21;90.33
70072;BME280;57434;42.794;23.302;2023-02-28T03:11:03;96163.13;;;3.03;90.37
70072;BME280;57434;42.794;23.302;2023-02-28T03:12:09;96157.28;;;2.97;90.57
70072;BME280;57434;42.794;23.302;2023-02-28T03:20:15;96067.59;;;2.55;90.61
70072;BME280;57434;42.794;23.302;2023-02-28T03:21:32;96190.25;;;3.28;90.58
70072;BME280;57434;42.794;23.302;2023-02-28T03:23:07;96193.19;;;3.21;90.36
70072;BME280;57434;42.794;23.302;2023-02-28T03:24:34;96191.19;;;3.21;90.64
70072;BME280;57434;42.794;23.302;2023-02-28T03:26:08;96199.38;;;3.28;90.72
70072;BME280;57434;42.794;23.302;2023-02-28T03:30:22;96062.28;;;2.45;90.59
70072;BME280;57434;42.794;23.302;2023-02-28T03:31:22;96199.44;;;3.41;90.53
70072;BME280;57434;42.794;23.302;2023-02-28T03:34:06;96157.56;;;3.03;90.10
70072;BME280;57434;42.794;23.302;2023-02-28T03:35:18;96239.25;;;3.51;90.05
70072;BME280;57434;42.794;23.302;2023-02-28T03:36:27;96169.28;;;3.27;89.66
70072;BME280;57434;42.794;23.302;2023-02-28T03:37:32;96221.59;;;3.61;89.33
70072;BME280;57434;42.794;23.302;2023-02-28T03:38:40;96222.19;;;3.52;89.06
70072;BME280;57434;42.794;23.302;2023-02-28T03:39:47;96221.91;;;3.47;89.04
70072;BME280;57434;42.794;23.302;2023-02-28T03:41:05;96205.50;;;3.20;89.51
70072;BME280;57434;42.794;23.302;2023-02-28T03:42:15;96228.25;;;3.11;90.24
70072;BME280;57434;42.794;23.302;2023-02-28T03:43:24;96174.84;;;2.91;90.25
70072;BME280;57434;42.794;23.302;2023-02-28T03:44:33;96106.38;;;2.35;90.13
70072;BME280;57434;42.794;23.302;2023-02-28T03:45:38;96215.88;;;3.16;90.77
70072;BME280;57434;42.794;23.302;2023-02-28T03:46:48;96162.47;;;2.95;90.45
70072;BME280;57434;42.794;23.302;2023-02-28T03:47:59;96214.94;;;3.22;90.60
70072;BME280;57434;42.794;23.302;2023-02-28T03:49:11;96217.06;;;3.34;90.63
70072;BME280;57434;42.794;23.302;2023-02-28T03:50:24;96215.75;;;3.39;90.75
70072;BME280;57434;42.794;23.302;2023-02-28T03:51:29;96222.72;;;3.11;90.83
70072;BME280;57434;42.794;23.302;2023-02-28T03:52:35;96227.47;;;3.11;91.26
70072;BME280;57434;42.794;23.302;2023-02-28T03:53:47;96224.56;;;3.18;91.25
70072;BME280;57434;42.794;23.302;2023-02-28T03:54:54;96230.72;;;3.25;91.33
70072;BME280;57434;42.794;23.302;2023-02-28T03:56:11;96209.97;;;3.14;91.48
70072;BME280;57434;42.794;23.302;2023-02-28T03:57:26;96188.72;;;2.91;91.56
70072;BME280;57434;42.794;23.302;2023-02-28T03:58:49;96222.84;;;3.24;91.57
70072;BME280;57434;42.794;23.302;2023-02-28T04:01:26;96220.41;;;3.26;91.50
70072;BME280;57434;42.794;23.302;2023-02-28T04:02:30;96243.59;;;3.35;91.38
70072;BME280;57434;42.794;23.302;2023-02-28T04:03:31;96227.59;;;3.23;90.73
70072;BME280;57434;42.794;23.302;2023-02-28T04:04:34;96212.25;;;3.19;91.13
70072;BME280;57434;42.794;23.302;2023-02-28T04:05:48;96215.09;;;3.15;90.85
70072;BME280;57434;42.794;23.302;2023-02-28T04:06:52;96218.84;;;3.25;90.97
70072;BME280;57434;42.794;23.302;2023-02-28T04:08:03;96144.56;;;2.64;90.56
70072;BME280;57434;42.794;23.302;2023-02-28T04:09:08;96198.59;;;2.92;90.74
70072;BME280;57434;42.794;23.302;2023-02-28T04:10:11;95980.22;;;1.43;90.97
70072;BME280;57434;42.794;23.302;2023-02-28T04:12:16;96218.47;;;3.06;90.87
70072;BME280;57434;42.794;23.302;2023-02-28T04:13:18;96217.28;;;3.07;90.84
70072;BME280;57434;42.794;23.302;2023-02-28T04:14:19;96099.53;;;2.24;91.08
70072;BME280;57434;42.794;23.302;2023-02-28T04:15:21;96241.09;;;3.21;91.20
70072;BME280;57434;42.794;23.302;2023-02-28T04:16:24;96232.84;;;3.01;91.41
70072;BME280;57434;42.794;23.302;2023-02-28T04:17:36;96235.69;;;2.98;91.70
70072;BME280;57434;42.794;23.302;2023-02-28T04:18:38;96239.09;;;3.05;91.79
70072;BME280;57434;42.794;23.302;2023-02-28T04:19:40;96218.06;;;2.88;92.02
70072;BME280;57434;42.794;23.302;2023-02-28T04:20:42;96228.16;;;2.98;92.35
70072;BME280;57434;42.794;23.302;2023-02-28T04:21:50;96227.38;;;2.98;92.44
70072;BME280;57434;42.794;23.302;2023-02-28T04:22:52;96250.09;;;3.09;92.72
70072;BME280;57434;42.794;23.302;2023-02-28T04:23:55;96228.50;;;3.00;92.99
70072;BME280;57434;42.794;23.302;2023-02-28T04:24:57;96209.94;;;2.97;92.97
70072;BME280;57434;42.794;23.302;2023-02-28T04:25:59;96180.66;;;2.60;92.51
70072;BME280;57434;42.794;23.302;2023-02-28T04:27:00;96238.84;;;2.80;92.65
70072;BME280;57434;42.794;23.302;2023-02-28T04:28:03;96242.28;;;3.04;92.78
70072;BME280;57434;42.794;23.302;2023-02-28T04:29:05;96228.22;;;2.95;92.97
70072;BME280;57434;42.794;23.302;2023-02-28T04:30:08;96207.94;;;2.82;93.28
70072;BME280;57434;42.794;23.302;2023-02-28T04:31:10;96144.53;;;2.48;93.71
70072;BME280;57434;42.794;23.302;2023-02-28T04:32:12;96210.41;;;2.76;93.80
70072;BME280;57434;42.794;23.302;2023-02-28T04:33:14;96227.75;;;3.16;93.66
70072;BME280;57434;42.794;23.302;2023-02-28T04:34:16;96233.00;;;3.30;93.85
70072;BME280;57434;42.794;23.302;2023-02-28T04:35:18;96204.19;;;3.08;93.68
70072;BME280;57434;42.794;23.302;2023-02-28T04:36:19;96193.72;;;2.80;93.63
70072;BME280;57434;42.794;23.302;2023-02-28T04:37:21;96233.06;;;2.91;93.85
70072;BME280;57434;42.794;23.302;2023-02-28T04:38:23;96231.19;;;3.04;94.25
70072;BME280;57434;42.794;23.302;2023-02-28T04:39:25;96226.94;;;2.99;94.84
70072;BME280;57434;42.794;23.302;2023-02-28T04:40:28;96236.16;;;3.13;94.93
70072;BME280;57434;42.794;23.302;2023-02-28T04:41:29;96204.63;;;2.87;95.04
70072;BME280;57434;42.794;23.302;2023-02-28T04:42:33;96226.59;;;2.97;95.22
70072;BME280;57434;42.794;23.302;2023-02-28T04:43:35;96131.31;;;2.35;95.14
70072;BME280;57434;42.794;23.302;2023-02-28T04:44:37;96135.94;;;2.42;95.53
70072;BME280;57434;42.794;23.302;2023-02-28T04:45:39;96209.16;;;2.97;95.71
70072;BME280;57434;42.794;23.302;2023-02-28T04:46:41;96086.88;;;2.03;95.54
70072;BME280;57434;42.794;23.302;2023-02-28T04:47:43;96238.00;;;3.19;95.74
70072;BME280;57434;42.794;23.302;2023-02-28T04:48:45;95995.03;;;1.72;95.44
70072;BME280;57434;42.794;23.302;2023-02-28T04:49:47;96218.50;;;3.23;95.81
70072;BME280;57434;42.794;23.302;2023-02-28T04:50:49;96234.38;;;3.38;95.68
70072;BME280;57434;42.794;23.302;2023-02-28T04:51:51;96235.34;;;3.48;95.42
70072;BME280;57434;42.794;23.302;2023-02-28T04:52:52;96226.00;;;3.58;95.27
70072;BME280;57434;42.794;23.302;2023-02-28T04:53:54;96220.78;;;3.44;94.97
70072;BME280;57434;42.794;23.302;2023-02-28T04:54:56;96247.59;;;3.15;94.53
70072;BME280;57434;42.794;23.302;2023-02-28T04:55:58;96056.97;;;1.98;94.40
70072;BME280;57434;42.794;23.302;2023-02-28T04:57:00;96214.72;;;2.97;94.82
70072;BME280;57434;42.794;23.302;2023-02-28T04:58:02;96111.09;;;2.19;94.67
70072;BME280;57434;42.794;23.302;2023-02-28T04:59:04;96265.72;;;3.19;95.01
70072;BME280;57434;42.794;23.302;2023-02-28T05:00:06;96244.72;;;3.02;94.71
70072;BME280;57434;42.794;23.302;2023-02-28T05:02:27;96228.56;;;2.97;94.97
70072;BME280;57434;42.794;23.302;2023-02-28T05:03:29;96194.34;;;2.67;95.42
70072;BME280;57434;42.794;23.302;2023-02-28T05:04:32;96233.75;;;2.95;95.74
70072;BME280;57434;42.794;23.302;2023-02-28T05:05:34;96246.13;;;3.10;95.91
70072;BME280;57434;42.794;23.302;2023-02-28T05:06:36;96221.47;;;2.96;95.87
70072;BME280;57434;42.794;23.302;2023-02-28T05:07:40;96220.53;;;3.02;96.04
70072;BME280;57434;42.794;23.302;2023-02-28T05:08:43;96113.13;;;2.34;96.05
70072;BME280;57434;42.794;23.302;2023-02-28T05:09:45;96251.84;;;3.19;95.97
70072;BME280;57434;42.794;23.302;2023-02-28T05:10:47;96239.41;;;3.27;96.00
70072;BME280;57434;42.794;23.302;2023-02-28T05:11:49;96230.06;;;3.37;96.06
70072;BME280;57434;42.794;23.302;2023-02-28T05:12:51;96242.69;;;3.38;95.78
70072;BME280;57434;42.794;23.302;2023-02-28T05:13:53;96171.56;;;2.96;95.69
70072;BME280;57434;42.794;23.302;2023-02-28T05:14:55;96235.25;;;3.35;95.73
70072;BME280;57434;42.794;23.302;2023-02-28T05:15:57;96221.13;;;3.30;95.80
70072;BME280;57434;42.794;23.302;2023-02-28T05:16:59;96196.97;;;3.11;95.68
70072;BME280;57434;42.794;23.302;2023-02-28T05:18:02;96261.38;;;3.54;95.62
70072;BME280;57434;42.794;23.302;2023-02-28T05:19:12;96210.88;;;2.91;95.40
70072;BME280;57434;42.794;23.302;2023-02-28T05:20:14;96244.25;;;3.23;95.74
70072;BME280;57434;42.794;23.302;2023-02-28T05:22:29;96260.75;;;3.47;96.10
70072;BME280;57434;42.794;23.302;2023-02-28T05:23:41;96263.22;;;3.61;95.96
70072;BME280;57434;42.794;23.302;2023-02-28T05:24:44;95998.84;;;1.58;95.42
70072;BME280;57434;42.794;23.302;2023-02-28T05:25:49;95868.91;;;0.79;95.05
70072;BME280;57434;42.794;23.302;2023-02-28T05:26:53;96093.19;;;2.43;95.21
70072;BME280;57434;42.794;23.302;2023-02-28T05:27:56;96230.03;;;3.21;95.25
70072;BME280;57434;42.794;23.302;2023-02-28T05:28:57;96265.22;;;3.40;95.60
70072;BME280;57434;42.794;23.302;2023-02-28T05:29:59;96214.75;;;3.13;95.65
70072;BME280;57434;42.794;23.302;2023-02-28T05:31:01;96235.41;;;3.28;95.71
70072;BME280;57434;42.794;23.302;2023-02-28T05:32:03;96265.44;;;3.50;95.57
70072;BME280;57434;42.794;23.302;2023-02-28T05:33:05;95910.47;;;1.15;94.93
70072;BME280;57434;42.794;23.302;2023-02-28T05:34:07;96262.88;;;3.39;94.96
70072;BME280;57434;42.794;23.302;2023-02-28T05:35:12;96283.91;;;3.56;94.85
70072;BME280;57434;42.794;23.302;2023-02-28T05:36:14;96237.91;;;3.23;94.78
70072;BME280;57434;42.794;23.302;2023-02-28T05:37:16;96281.06;;;3.60;95.13
70072;BME280;57434;42.794;23.302;2023-02-28T05:38:18;96291.97;;;3.51;95.14
70072;BME280;57434;42.794;23.302;2023-02-28T05:39:20;96288.22;;;3.41;95.37
70072;BME280;57434;42.794;23.302;2023-02-28T05:40:22;96296.72;;;3.50;95.41
70072;BME280;57434;42.794;23.302;2023-02-28T05:41:24;96273.91;;;3.42;95.83
70072;BME280;57434;42.794;23.302;2023-02-28T05:42:25;96263.00;;;3.35;96.20
70072;BME280;57434;42.794;23.302;2023-02-28T05:43:28;96273.91;;;3.42;96.43
70072;BME280;57434;42.794;23.302;2023-02-28T05:44:30;96267.16;;;3.43;96.27
70072;BME280;57434;42.794;23.302;2023-02-28T05:45:32;96254.31;;;3.33;96.18
70072;BME280;57434;42.794;23.302;2023-02-28T05:46:34;95811.56;;;0.24;96.01
70072;BME280;57434;42.794;23.302;2023-02-28T05:47:37;96022.06;;;1.45;96.32
70072;BME280;57434;42.794;23.302;2023-02-28T05:48:54;96311.34;;;3.34;96.93
70072;BME280;57434;42.794;23.302;2023-02-28T05:49:56;95749.69;;;0.01;96.31
70072;BME280;57434;42.794;23.302;2023-02-28T05:50:59;96286.44;;;3.67;96.95
70072;BME280;57434;42.794;23.302;2023-02-28T05:52:04;95992.97;;;1.76;96.63
70072;BME280;57434;42.794;23.302;2023-02-28T05:53:07;95947.09;;;1.59;96.50
70072;BME280;57434;42.794;23.302;2023-02-28T05:54:10;96119.75;;;2.77;96.66
70072;BME280;57434;42.794;23.302;2023-02-28T05:55:14;96270.47;;;3.71;96.62
70072;BME280;57434;42.794;23.302;2023-02-28T05:56:16;96158.28;;;2.87;96.27
70072;BME280;57434;42.794;23.302;2023-02-28T05:57:18;96288.19;;;3.77;96.36
70072;BME280;57434;42.794;23.302;2023-02-28T05:58:25;96284.00;;;3.69;96.21
70072;BME280;57434;42.794;23.302;2023-02-28T05:59:28;96286.91;;;3.82;96.29
70072;BME280;57434;42.794;23.302;2023-02-28T06:00:30;96302.56;;;3.72;95.87
70072;BME280;57434;42.794;23.302;2023-02-28T06:02:37;96284.28;;;3.58;96.13
70072;BME280;57434;42.794;23.302;2023-02-28T06:03:40;96300.31;;;3.67;96.04
70072;BME280;57434;42.794;23.302;2023-02-28T06:04:42;96300.66;;;3.69;96.17
70072;BME280;57434;42.794;23.302;2023-02-28T06:05:44;96233.78;;;3.31;96.22
70072;BME280;57434;42.794;23.302;2023-02-28T06:06:47;96303.56;;;3.82;96.04
70072;BME280;57434;42.794;23.302;2023-02-28T06:07:53;96184.63;;;2.59;95.77
70072;BME280;57434;42.794;23.302;2023-02-28T06:08:56;96245.66;;;3.31;96.11
70072;BME280;57434;42.794;23.302;2023-02-28T06:09:58;96322.91;;;3.85;95.98
70072;BME280;57434;42.794;23.302;2023-02-28T06:11:03;96335.91;;;3.88;95.49
70072;BME280;57434;42.794;23.302;2023-02-28T06:12:06;96312.84;;;3.91;95.84
70072;BME280;57434;42.794;23.302;2023-02-28T06:13:09;96259.81;;;3.69;95.63
70072;BME280;57434;42.794;23.302;2023-02-28T06:14:16;96309.03;;;3.85;95.71
70072;BME280;57434;42.794;23.302;2023-02-28T06:15:19;96297.28;;;3.94;95.67
70072;BME280;57434;42.794;23.302;2023-02-28T06:16:21;96292.09;;;3.80;95.58
70072;BME280;57434;42.794;23.302;2023-02-28T06:17:23;96263.03;;;3.68;95.88
70072;BME280;57434;42.794;23.302;2023-02-28T06:18:26;96270.97;;;3.33;95.80
70072;BME280;57434;42.794;23.302;2023-02-28T06:19:28;96273.81;;;3.82;95.95
70072;BME280;57434;42.794;23.302;2023-02-28T06:20:31;96312.75;;;4.11;95.87
70072;BME280;57434;42.794;23.302;2023-02-28T06:21:33;96308.59;;;4.19;95.79
70072;BME280;57434;42.794;23.302;2023-02-28T06:22:36;96297.84;;;4.05;95.79
70072;BME280;57434;42.794;23.302;2023-02-28T06:23:38;96286.72;;;4.05;95.64
70072;BME280;57434;42.794;23.302;2023-02-28T06:24:40;96298.09;;;4.10;95.56
70072;BME280;57434;42.794;23.302;2023-02-28T06:25:45;96317.59;;;4.23;95.43
70072;BME280;57434;42.794;23.302;2023-02-28T06:26:47;96282.81;;;4.02;95.51
70072;BME280;57434;42.794;23.302;2023-02-28T06:27:51;96310.75;;;4.28;95.57
70072;BME280;57434;42.794;23.302;2023-02-28T06:28:54;96299.38;;;4.22;95.53
70072;BME280;57434;42.794;23.302;2023-02-28T06:29:57;96198.25;;;3.58;95.38
70072;BME280;57434;42.794;23.302;2023-02-28T06:31:09;95867.78;;;0.96;94.74
70072;BME280;57434;42.794;23.302;2023-02-28T06:32:27;95932.69;;;1.48;94.88
70072;BME280;57434;42.794;23.302;2023-02-28T06:33:29;96009.06;;;2.37;95.21
70072;BME280;57434;42.794;23.302;2023-02-28T06:34:32;96270.69;;;4.13;95.39